createdAt,value
2023-02-15T00:01:41.731Z,19.9
2023-02-15T00:07:18.879Z,19.8
2023-02-15T00:12:56.225Z,19.8
2023-02-15T00:18:18.229Z,19.8
2023-02-15T00:23:54.792Z,19.8
2023-02-15T00:29:32.730Z,19.8
2023-02-15T00:35:10.515Z,19.8
2023-02-15T00:40:32.508Z,19.7
2023-02-15T00:45:55.058Z,19.7
2023-02-15T00:51:15.352Z,19.7
2023-02-15T00:56:53.321Z,19.6
2023-02-15T01:02:31.883Z,19.6
2023-02-15T01:08:10.989Z,19.6
2023-02-15T01:13:47.925Z,19.6
2023-02-15T01:19:26.468Z,19.6
2023-02-15T01:24:31.879Z,19.6
2023-02-15T01:29:53.005Z,19.5
2023-02-15T01:35:31.639Z,19.5
2023-02-15T01:41:08.571Z,19.5
2023-02-15T01:46:45.767Z,19.5
2023-02-15T01:52:24.448Z,19.5
2023-02-15T01:58:01.624Z,19.5
2023-02-15T02:03:38.636Z,19.4
2023-02-15T02:09:01.072Z,19.4
2023-02-15T02:14:36.923Z,19.5
2023-02-15T02:20:14.997Z,19.5
2023-02-15T02:25:37.573Z,19.6
2023-02-15T02:31:15.117Z,19.6
2023-02-15T02:36:21.323Z,19.8
2023-02-15T02:41:43.566Z,19.8
2023-02-15T02:47:05.311Z,19.9
2023-02-15T02:52:43.019Z,20
2023-02-15T02:58:21.145Z,20.1
2023-02-15T03:03:58.881Z,20.1
2023-02-15T03:09:35.405Z,20.1
2023-02-15T03:15:12.744Z,20.2
2023-02-15T03:20:49.825Z,20.3
2023-02-15T03:26:29.130Z,20.3
2023-02-15T03:32:07.425Z,20.3
2023-02-15T03:38:00.171Z,20.4
2023-02-15T03:43:22.716Z,20.4
2023-02-15T03:49:00.909Z,20.4
2023-02-15T03:54:21.619Z,20.4
2023-02-15T03:59:44.330Z,20.4
2023-02-15T04:05:07.412Z,20.4
2023-02-15T04:10:44.425Z,20.4
2023-02-15T04:16:08.354Z,20.4
2023-02-15T04:21:46.869Z,20.4
2023-02-15T04:27:09.864Z,20.4
2023-02-15T04:32:47.909Z,20.4
2023-02-15T04:38:10.132Z,20.4
2023-02-15T04:43:46.630Z,20.5
2023-02-15T04:49:24.086Z,20.4
2023-02-15T04:54:47.595Z,20.4
2023-02-15T05:00:24.002Z,20.5
2023-02-15T05:06:01.620Z,20.4
2023-02-15T05:11:39.284Z,20.4
2023-02-15T05:17:01.546Z,20.4
2023-02-15T05:22:38.544Z,20.5
2023-02-15T05:28:15.478Z,20.5
2023-02-15T05:33:39.695Z,20.5
2023-02-15T05:39:01.780Z,20.5
2023-02-15T05:44:38.883Z,20.5
2023-02-15T05:50:17.132Z,20.5
2023-02-15T05:55:38.185Z,20.5
2023-02-15T06:01:00.288Z,20.5
2023-02-15T06:06:38.805Z,20.4
2023-02-15T06:12:20.917Z,20.4
2023-02-15T06:17:58.543Z,20.4
2023-02-15T06:23:34.790Z,20.4
2023-02-15T06:29:11.433Z,20.4
2023-02-15T06:34:49.824Z,20.4
2023-02-15T06:40:27.232Z,20.4
2023-02-15T06:45:49.220Z,20.4
2023-02-15T06:51:27.514Z,20.4
2023-02-15T06:57:05.061Z,20.4
2023-02-15T07:02:42.818Z,20.3
2023-02-15T07:08:20.477Z,20.3
2023-02-15T07:13:57.940Z,20.3
2023-02-15T07:19:53.307Z,20.3
2023-02-15T07:25:15.441Z,20.3
2023-02-15T07:30:54.562Z,20.3
2023-02-15T07:36:17.586Z,20.3
2023-02-15T07:41:55.286Z,20.3
2023-02-15T07:47:32.917Z,20.3
2023-02-15T07:53:13.387Z,20.3
2023-02-15T07:58:22.144Z,20.3
2023-02-15T08:03:44.618Z,20.3
2023-02-15T08:09:06.728Z,20.2
2023-02-15T08:14:44.987Z,20.2
2023-02-15T08:20:23.381Z,20.1
2023-02-15T08:26:01.039Z,20.1
2023-02-15T08:31:25.628Z,20.1
2023-02-15T08:37:02.993Z,20.1
2023-02-15T08:42:40.533Z,20
2023-02-15T08:48:02.836Z,19.9
2023-02-15T08:53:40.373Z,19.9
2023-02-15T08:59:18.225Z,19.8
2023-02-15T09:04:56.543Z,19.7
2023-02-15T09:10:18.048Z,19.6
2023-02-15T09:15:58.569Z,19.6
2023-02-15T09:21:36.193Z,19.6
2023-02-15T09:27:25.437Z,19.6
2023-02-15T09:33:04.308Z,19.6
2023-02-15T09:38:56.769Z,19.5
2023-02-15T09:44:35.997Z,19.4
2023-02-15T09:50:14.105Z,19.4
2023-02-15T09:55:52.372Z,19.4
2023-02-15T10:01:29.218Z,19.4
2023-02-15T10:06:51.724Z,19.4
2023-02-15T10:12:42.910Z,19.3
2023-02-15T10:18:04.457Z,19.3
2023-02-15T10:23:43.420Z,19.3
2023-02-15T10:29:20.580Z,19.3
2023-02-15T10:34:58.697Z,19.2
2023-02-15T10:40:05.523Z,19.2
2023-02-15T10:45:29.124Z,19.1
2023-02-15T10:51:10.201Z,19.1
2023-02-15T10:56:47.825Z,19.1
2023-02-15T11:02:25.969Z,19.1
2023-02-15T11:08:02.466Z,19.1
2023-02-15T11:13:43.507Z,19.1
2023-02-15T11:19:21.827Z,19
2023-02-15T11:24:58.581Z,19
2023-02-15T11:30:38.632Z,18.4
2023-02-15T11:36:17.668Z,45.1
2023-02-15T11:41:39.629Z,54.4
2023-02-15T11:47:19.211Z,41.3
2023-02-15T11:52:29.165Z,37
2023-02-15T11:57:51.889Z,41.5
2023-02-15T12:03:29.893Z,55.1
2023-02-15T12:09:07.588Z,49.4
2023-02-15T12:14:45.358Z,41.3
2023-02-15T12:20:26.336Z,37.5
2023-02-15T12:25:36.336Z,45.9
2023-02-15T12:30:59.830Z,52.3
2023-02-15T12:36:24.524Z,45.5
2023-02-15T12:42:08.832Z,40.6
2023-02-15T12:47:47.758Z,37
2023-02-15T12:53:29.974Z,43.6
2023-02-15T12:59:14.932Z,51.3
2023-02-15T13:04:52.726Z,44.5
2023-02-15T13:10:33.179Z,40.1
2023-02-15T13:15:55.201Z,36.9
2023-02-15T13:21:17.742Z,34.4
2023-02-15T13:27:01.101Z,32.2
2023-02-15T13:32:47.541Z,30.4
2023-02-15T13:38:39.101Z,29
2023-02-15T13:44:01.104Z,27.9
2023-02-15T13:49:53.582Z,26.9
2023-02-15T13:55:29.664Z,26.1
2023-02-15T14:01:06.733Z,25.4
2023-02-15T14:06:30.421Z,24.8
2023-02-15T14:11:51.844Z,24.3
2023-02-15T14:17:22.999Z,23.8
2023-02-15T14:22:46.207Z,23.4
2023-02-15T14:28:25.986Z,23.1
2023-02-15T14:34:08.468Z,22.7
2023-02-15T14:39:47.531Z,22.4
2023-02-15T14:45:24.893Z,22.1
2023-02-15T14:51:03.180Z,21.9
2023-02-15T14:56:41.054Z,21.7
2023-02-15T15:02:21.161Z,21.5
2023-02-15T15:08:01.635Z,21.4
2023-02-15T15:13:42.098Z,21.2
2023-02-15T15:19:21.054Z,21
2023-02-15T15:25:11.683Z,20.9
2023-02-15T15:30:50.525Z,20.8
2023-02-15T15:36:28.008Z,20.7
2023-02-15T15:42:04.172Z,20.6
2023-02-15T15:47:41.209Z,20.5
2023-02-15T15:53:12.082Z,20.4
2023-02-15T15:58:35.090Z,20.4
2023-02-15T16:03:58.719Z,20.3
2023-02-15T16:09:19.644Z,20.2
2023-02-15T16:14:57.769Z,20.2
2023-02-15T16:20:20.974Z,20.1
2023-02-15T16:26:00.302Z,20.1
2023-02-15T16:31:38.091Z,20.1
2023-02-15T16:37:15.721Z,20
2023-02-15T16:42:38.624Z,19.9
2023-02-15T16:48:15.742Z,19.9
2023-02-15T16:53:54.542Z,19.9
2023-02-15T16:59:30.951Z,19.8
2023-02-15T17:05:31.700Z,19.8
2023-02-15T17:10:57.663Z,19.8
2023-02-15T17:16:21.263Z,19.8
2023-02-15T17:21:44.400Z,19.7
2023-02-15T17:27:22.482Z,19.7
2023-02-15T17:33:02.826Z,19.6
2023-02-15T17:38:40.210Z,19.6
2023-02-15T17:44:18.799Z,19.6
2023-02-15T17:49:56.177Z,19.6
2023-02-15T17:55:34.928Z,19.6
2023-02-15T18:00:59.571Z,19.6
2023-02-15T18:06:21.499Z,19.5
2023-02-15T18:11:58.852Z,19.5
2023-02-15T18:17:36.138Z,19.5
2023-02-15T18:23:13.822Z,19.4
2023-02-15T18:28:50.744Z,19.4
2023-02-15T18:34:29.161Z,19.4
2023-02-15T18:40:06.034Z,19.4
2023-02-15T18:45:44.434Z,19.4
2023-02-15T18:51:21.957Z,19.4
2023-02-15T18:56:58.693Z,19.3
2023-02-15T19:02:35.440Z,19.3
2023-02-15T19:08:13.162Z,19.3
2023-02-15T19:13:36.146Z,19.3
2023-02-15T19:19:14.653Z,19.3
2023-02-15T19:24:51.356Z,19.3
2023-02-15T19:30:42.575Z,19.2
2023-02-15T19:36:23.048Z,19.2
2023-02-15T19:42:00.331Z,19.2
2023-02-15T19:47:40.928Z,19.2
2023-02-15T19:53:20.528Z,19.2
2023-02-15T19:59:01.753Z,19.1
2023-02-15T20:04:37.903Z,19.1
2023-02-15T20:10:30.662Z,19.1
2023-02-15T20:16:07.929Z,19.1
2023-02-15T20:21:46.788Z,19.1
2023-02-15T20:27:23.563Z,19.1
2023-02-15T20:33:02.322Z,19
2023-02-15T20:38:41.061Z,19
2023-02-15T20:44:18.672Z,19
2023-02-15T20:49:56.650Z,18.9
2023-02-15T20:55:34.595Z,18.9
2023-02-15T21:01:11.397Z,18.9
2023-02-15T21:06:49.773Z,18.9
2023-02-15T21:11:56.138Z,18.9
2023-02-15T21:17:33.715Z,18.9
2023-02-15T21:23:10.608Z,18.9
2023-02-15T21:28:31.981Z,18.8
2023-02-15T21:34:10.348Z,18.8
2023-02-15T21:39:31.452Z,18.8
2023-02-15T21:44:55.511Z,18.8
2023-02-15T21:50:17.509Z,18.8
2023-02-15T21:55:54.593Z,18.8
2023-02-15T22:01:32.544Z,18.8
2023-02-15T22:06:55.006Z,18.8
2023-02-15T22:12:32.441Z,18.8
2023-02-15T22:17:53.951Z,18.8
2023-02-15T22:23:30.646Z,18.8
2023-02-15T22:29:07.903Z,18.8
2023-02-15T22:40:08.016Z,18.8
2023-02-15T22:45:46.122Z,18.8
2023-02-15T23:22:37.590Z,18.6
2023-02-15T23:28:15.300Z,18.6
2023-02-15T23:33:24.442Z,18.6
2023-02-15T23:39:01.500Z,18.6
2023-02-15T23:44:23.703Z,18.6
2023-02-15T23:50:01.205Z,18.6
2023-02-15T23:55:38.051Z,18.6
